sensor_id;sensor_type;location;lat;lon;timestamp;P1;durP1;ratioP1;P2;durP2;ratioP2
80152;SDS011;69475;51.196;4.542;2023-04-25T00:01:13;6.95;;;3.63;;
80152;SDS011;69475;51.196;4.542;2023-04-25T00:03:39;6.60;;;3.45;;
80152;SDS011;69475;51.196;4.542;2023-04-25T00:06:05;7.05;;;3.50;;
80152;SDS011;69475;51.196;4.542;2023-04-25T00:08:31;6.00;;;3.42;;
80152;SDS011;69475;51.196;4.542;2023-04-25T00:10:57;7.40;;;3.78;;
80152;SDS011;69475;51.196;4.542;2023-04-25T00:13:23;5.03;;;3.13;;
80152;SDS011;69475;51.196;4.542;2023-04-25T00:15:50;6.93;;;3.70;;
80152;SDS011;69475;51.196;4.542;2023-04-25T00:18:18;7.07;;;3.45;;
80152;SDS011;69475;51.196;4.542;2023-04-25T00:20:44;6.53;;;3.30;;
80152;SDS011;69475;51.196;4.542;2023-04-25T00:23:12;5.85;;;3.42;;
80152;SDS011;69475;51.196;4.542;2023-04-25T00:25:43;5.13;;;3.55;;
80152;SDS011;69475;51.196;4.542;2023-04-25T00:28:12;6.93;;;3.53;;
80152;SDS011;69475;51.196;4.542;2023-04-25T00:30:39;7.85;;;3.63;;
80152;SDS011;69475;51.196;4.542;2023-04-25T00:33:05;5.50;;;3.55;;
80152;SDS011;69475;51.196;4.542;2023-04-25T00:35:31;6.03;;;3.50;;
80152;SDS011;69475;51.196;4.542;2023-04-25T00:37:57;5.13;;;3.17;;
80152;SDS011;69475;51.196;4.542;2023-04-25T00:40:23;5.90;;;3.33;;
80152;SDS011;69475;51.196;4.542;2023-04-25T00:42:49;5.78;;;3.50;;
80152;SDS011;69475;51.196;4.542;2023-04-25T00:45:16;6.70;;;3.58;;
80152;SDS011;69475;51.196;4.542;2023-04-25T00:47:42;6.90;;;3.50;;
80152;SDS011;69475;51.196;4.542;2023-04-25T00:50:08;6.85;;;3.58;;
80152;SDS011;69475;51.196;4.542;2023-04-25T00:52:36;6.10;;;3.15;;
80152;SDS011;69475;51.196;4.542;2023-04-25T00:55:08;5.28;;;3.05;;
80152;SDS011;69475;51.196;4.542;2023-04-25T00:57:35;7.50;;;3.70;;
80152;SDS011;69475;51.196;4.542;2023-04-25T01:00:01;6.75;;;3.40;;
80152;SDS011;69475;51.196;4.542;2023-04-25T01:02:30;7.03;;;3.67;;
80152;SDS011;69475;51.196;4.542;2023-04-25T01:04:56;6.18;;;3.58;;
80152;SDS011;69475;51.196;4.542;2023-04-25T01:07:22;5.85;;;3.40;;
80152;SDS011;69475;51.196;4.542;2023-04-25T01:09:48;6.55;;;3.75;;
80152;SDS011;69475;51.196;4.542;2023-04-25T01:12:16;5.38;;;3.10;;
80152;SDS011;69475;51.196;4.542;2023-04-25T01:14:42;5.47;;;3.38;;
80152;SDS011;69475;51.196;4.542;2023-04-25T01:17:08;7.00;;;3.70;;
80152;SDS011;69475;51.196;4.542;2023-04-25T01:19:34;6.10;;;3.42;;
80152;SDS011;69475;51.196;4.542;2023-04-25T01:22:00;6.13;;;3.28;;
80152;SDS011;69475;51.196;4.542;2023-04-25T01:24:26;4.68;;;3.17;;
80152;SDS011;69475;51.196;4.542;2023-04-25T01:26:52;5.30;;;3.22;;
80152;SDS011;69475;51.196;4.542;2023-04-25T01:29:21;4.47;;;2.80;;
80152;SDS011;69475;51.196;4.542;2023-04-25T01:31:47;4.97;;;2.90;;
80152;SDS011;69475;51.196;4.542;2023-04-25T01:34:13;5.82;;;3.20;;
80152;SDS011;69475;51.196;4.542;2023-04-25T01:36:39;5.75;;;3.20;;
80152;SDS011;69475;51.196;4.542;2023-04-25T01:39:06;5.22;;;3.17;;
80152;SDS011;69475;51.196;4.542;2023-04-25T01:41:32;4.43;;;3.20;;
80152;SDS011;69475;51.196;4.542;2023-04-25T01:43:59;6.95;;;3.28;;
80152;SDS011;69475;51.196;4.542;2023-04-25T01:46:26;8.18;;;3.50;;
80152;SDS011;69475;51.196;4.542;2023-04-25T01:48:52;5.07;;;3.15;;
80152;SDS011;69475;51.196;4.542;2023-04-25T01:51:18;5.75;;;3.13;;
80152;SDS011;69475;51.196;4.542;2023-04-25T01:53:44;6.78;;;3.30;;
80152;SDS011;69475;51.196;4.542;2023-04-25T01:56:10;6.80;;;3.20;;
80152;SDS011;69475;51.196;4.542;2023-04-25T01:58:36;5.63;;;3.33;;
80152;SDS011;69475;51.196;4.542;2023-04-25T02:01:01;4.95;;;3.22;;
80152;SDS011;69475;51.196;4.542;2023-04-25T02:03:27;4.85;;;3.13;;
80152;SDS011;69475;51.196;4.542;2023-04-25T02:05:54;6.15;;;3.63;;
80152;SDS011;69475;51.196;4.542;2023-04-25T02:08:20;6.15;;;3.20;;
80152;SDS011;69475;51.196;4.542;2023-04-25T02:10:45;6.43;;;3.38;;
80152;SDS011;69475;51.196;4.542;2023-04-25T02:13:11;5.60;;;3.35;;
80152;SDS011;69475;51.196;4.542;2023-04-25T02:15:37;6.43;;;3.08;;
80152;SDS011;69475;51.196;4.542;2023-04-25T02:18:02;5.00;;;3.10;;
80152;SDS011;69475;51.196;4.542;2023-04-25T02:20:29;6.82;;;3.13;;
80152;SDS011;69475;51.196;4.542;2023-04-25T02:22:55;7.15;;;3.58;;
80152;SDS011;69475;51.196;4.542;2023-04-25T02:25:21;6.40;;;3.85;;
80152;SDS011;69475;51.196;4.542;2023-04-25T02:27:47;5.38;;;3.22;;
80152;SDS011;69475;51.196;4.542;2023-04-25T02:30:14;5.93;;;3.53;;
80152;SDS011;69475;51.196;4.542;2023-04-25T02:32:40;5.28;;;3.03;;
80152;SDS011;69475;51.196;4.542;2023-04-25T02:35:06;6.72;;;3.70;;
80152;SDS011;69475;51.196;4.542;2023-04-25T02:37:33;6.45;;;3.00;;
80152;SDS011;69475;51.196;4.542;2023-04-25T02:39:59;6.85;;;3.50;;
80152;SDS011;69475;51.196;4.542;2023-04-25T02:42:25;6.40;;;3.38;;
80152;SDS011;69475;51.196;4.542;2023-04-25T02:44:51;7.38;;;3.60;;
80152;SDS011;69475;51.196;4.542;2023-04-25T02:47:17;6.57;;;3.67;;
80152;SDS011;69475;51.196;4.542;2023-04-25T02:49:43;5.28;;;3.38;;
80152;SDS011;69475;51.196;4.542;2023-04-25T02:52:10;6.28;;;3.35;;
80152;SDS011;69475;51.196;4.542;2023-04-25T02:54:36;6.82;;;3.40;;
80152;SDS011;69475;51.196;4.542;2023-04-25T02:57:01;8.13;;;3.17;;
80152;SDS011;69475;51.196;4.542;2023-04-25T02:59:27;6.10;;;3.38;;
80152;SDS011;69475;51.196;4.542;2023-04-25T03:01:53;6.57;;;3.10;;
80152;SDS011;69475;51.196;4.542;2023-04-25T03:04:19;8.88;;;3.25;;
80152;SDS011;69475;51.196;4.542;2023-04-25T03:06:46;6.78;;;3.28;;
80152;SDS011;69475;51.196;4.542;2023-04-25T03:09:12;7.38;;;3.65;;
80152;SDS011;69475;51.196;4.542;2023-04-25T03:11:40;7.13;;;3.53;;
80152;SDS011;69475;51.196;4.542;2023-04-25T03:14:06;6.22;;;3.35;;
80152;SDS011;69475;51.196;4.542;2023-04-25T03:16:31;7.78;;;3.25;;
80152;SDS011;69475;51.196;4.542;2023-04-25T03:18:57;7.32;;;3.10;;
80152;SDS011;69475;51.196;4.542;2023-04-25T03:21:23;5.85;;;3.42;;
80152;SDS011;69475;51.196;4.542;2023-04-25T03:23:49;7.15;;;3.53;;
80152;SDS011;69475;51.196;4.542;2023-04-25T03:26:14;7.60;;;3.60;;
80152;SDS011;69475;51.196;4.542;2023-04-25T03:28:40;8.30;;;3.60;;
80152;SDS011;69475;51.196;4.542;2023-04-25T03:31:06;7.18;;;3.50;;
80152;SDS011;69475;51.196;4.542;2023-04-25T03:33:32;6.35;;;3.33;;
80152;SDS011;69475;51.196;4.542;2023-04-25T03:35:57;5.82;;;3.58;;
80152;SDS011;69475;51.196;4.542;2023-04-25T03:38:23;6.45;;;3.40;;
80152;SDS011;69475;51.196;4.542;2023-04-25T03:40:49;6.22;;;3.25;;
80152;SDS011;69475;51.196;4.542;2023-04-25T03:43:15;6.85;;;3.20;;
80152;SDS011;69475;51.196;4.542;2023-04-25T03:45:41;9.35;;;4.18;;
80152;SDS011;69475;51.196;4.542;2023-04-25T03:48:07;4.95;;;3.42;;
80152;SDS011;69475;51.196;4.542;2023-04-25T03:50:33;5.22;;;3.00;;
80152;SDS011;69475;51.196;4.542;2023-04-25T03:52:59;7.47;;;3.35;;
80152;SDS011;69475;51.196;4.542;2023-04-25T03:55:25;7.43;;;3.60;;
80152;SDS011;69475;51.196;4.542;2023-04-25T03:57:50;7.45;;;3.55;;
80152;SDS011;69475;51.196;4.542;2023-04-25T04:00:16;6.95;;;3.40;;
80152;SDS011;69475;51.196;4.542;2023-04-25T04:02:42;7.15;;;3.30;;
80152;SDS011;69475;51.196;4.542;2023-04-25T04:05:08;7.20;;;3.60;;
80152;SDS011;69475;51.196;4.542;2023-04-25T04:07:34;8.48;;;4.07;;
80152;SDS011;69475;51.196;4.542;2023-04-25T04:10:08;7.57;;;3.67;;
80152;SDS011;69475;51.196;4.542;2023-04-25T04:12:35;8.23;;;3.28;;
80152;SDS011;69475;51.196;4.542;2023-04-25T04:15:05;8.88;;;3.40;;
80152;SDS011;69475;51.196;4.542;2023-04-25T04:17:31;5.57;;;3.20;;
80152;SDS011;69475;51.196;4.542;2023-04-25T04:19:58;7.25;;;3.25;;
80152;SDS011;69475;51.196;4.542;2023-04-25T04:22:23;7.63;;;3.50;;
80152;SDS011;69475;51.196;4.542;2023-04-25T04:24:49;9.68;;;3.53;;
80152;SDS011;69475;51.196;4.542;2023-04-25T04:27:16;7.03;;;3.15;;
80152;SDS011;69475;51.196;4.542;2023-04-25T04:29:43;5.88;;;3.20;;
80152;SDS011;69475;51.196;4.542;2023-04-25T04:32:08;5.93;;;3.22;;
80152;SDS011;69475;51.196;4.542;2023-04-25T04:34:34;5.97;;;2.95;;
80152;SDS011;69475;51.196;4.542;2023-04-25T04:37:00;6.97;;;3.67;;
80152;SDS011;69475;51.196;4.542;2023-04-25T04:39:26;5.43;;;2.80;;
80152;SDS011;69475;51.196;4.542;2023-04-25T04:41:52;7.00;;;3.38;;
80152;SDS011;69475;51.196;4.542;2023-04-25T04:44:18;7.25;;;2.88;;
80152;SDS011;69475;51.196;4.542;2023-04-25T04:46:44;4.32;;;2.80;;
80152;SDS011;69475;51.196;4.542;2023-04-25T04:49:11;5.63;;;3.00;;
80152;SDS011;69475;51.196;4.542;2023-04-25T04:51:39;4.60;;;2.80;;
80152;SDS011;69475;51.196;4.542;2023-04-25T04:54:05;7.30;;;3.00;;
80152;SDS011;69475;51.196;4.542;2023-04-25T04:56:31;6.85;;;2.88;;
80152;SDS011;69475;51.196;4.542;2023-04-25T04:58:57;7.95;;;3.17;;
80152;SDS011;69475;51.196;4.542;2023-04-25T05:01:23;6.40;;;2.90;;
80152;SDS011;69475;51.196;4.542;2023-04-25T05:03:50;6.35;;;2.88;;
80152;SDS011;69475;51.196;4.542;2023-04-25T05:06:16;5.88;;;2.60;;
80152;SDS011;69475;51.196;4.542;2023-04-25T05:08:43;6.35;;;2.90;;
80152;SDS011;69475;51.196;4.542;2023-04-25T05:11:08;5.03;;;2.92;;
80152;SDS011;69475;51.196;4.542;2023-04-25T05:13:34;10.05;;;3.28;;
80152;SDS011;69475;51.196;4.542;2023-04-25T05:16:00;7.05;;;3.17;;
80152;SDS011;69475;51.196;4.542;2023-04-25T05:18:26;11.18;;;4.32;;
80152;SDS011;69475;51.196;4.542;2023-04-25T05:20:51;14.10;;;5.38;;
80152;SDS011;69475;51.196;4.542;2023-04-25T05:23:18;15.18;;;5.32;;
80152;SDS011;69475;51.196;4.542;2023-04-25T05:25:44;20.63;;;5.80;;
80152;SDS011;69475;51.196;4.542;2023-04-25T05:28:10;17.80;;;5.30;;
80152;SDS011;69475;51.196;4.542;2023-04-25T05:30:37;21.23;;;5.68;;
80152;SDS011;69475;51.196;4.542;2023-04-25T05:33:03;15.02;;;4.90;;
80152;SDS011;69475;51.196;4.542;2023-04-25T05:35:28;20.25;;;5.65;;
80152;SDS011;69475;51.196;4.542;2023-04-25T05:37:55;18.40;;;5.78;;
80152;SDS011;69475;51.196;4.542;2023-04-25T05:40:20;21.25;;;5.00;;
80152;SDS011;69475;51.196;4.542;2023-04-25T05:42:46;19.67;;;5.47;;
80152;SDS011;69475;51.196;4.542;2023-04-25T05:45:12;17.95;;;5.40;;
80152;SDS011;69475;51.196;4.542;2023-04-25T05:47:38;20.60;;;5.75;;
80152;SDS011;69475;51.196;4.542;2023-04-25T05:50:04;15.07;;;5.30;;
80152;SDS011;69475;51.196;4.542;2023-04-25T05:52:30;14.18;;;4.88;;
80152;SDS011;69475;51.196;4.542;2023-04-25T05:54:55;12.88;;;4.60;;
80152;SDS011;69475;51.196;4.542;2023-04-25T05:57:25;13.68;;;4.88;;
80152;SDS011;69475;51.196;4.542;2023-04-25T05:59:52;15.40;;;4.43;;
80152;SDS011;69475;51.196;4.542;2023-04-25T06:02:18;13.95;;;4.53;;
80152;SDS011;69475;51.196;4.542;2023-04-25T06:04:46;13.07;;;5.45;;
80152;SDS011;69475;51.196;4.542;2023-04-25T06:07:13;15.85;;;4.47;;
80152;SDS011;69475;51.196;4.542;2023-04-25T06:09:38;11.80;;;4.10;;
80152;SDS011;69475;51.196;4.542;2023-04-25T06:12:05;16.08;;;4.32;;
80152;SDS011;69475;51.196;4.542;2023-04-25T06:14:31;14.00;;;4.25;;
80152;SDS011;69475;51.196;4.542;2023-04-25T06:16:58;17.95;;;4.45;;
80152;SDS011;69475;51.196;4.542;2023-04-25T06:19:23;16.38;;;4.43;;
80152;SDS011;69475;51.196;4.542;2023-04-25T06:21:49;12.38;;;4.40;;
80152;SDS011;69475;51.196;4.542;2023-04-25T06:24:15;15.43;;;4.50;;
80152;SDS011;69475;51.196;4.542;2023-04-25T06:26:41;14.60;;;4.38;;
80152;SDS011;69475;51.196;4.542;2023-04-25T06:29:06;17.65;;;4.32;;
80152;SDS011;69475;51.196;4.542;2023-04-25T06:31:32;13.95;;;4.20;;
80152;SDS011;69475;51.196;4.542;2023-04-25T06:33:58;14.93;;;4.22;;
80152;SDS011;69475;51.196;4.542;2023-04-25T06:36:24;11.30;;;3.90;;
80152;SDS011;69475;51.196;4.542;2023-04-25T06:38:51;10.45;;;4.00;;
80152;SDS011;69475;51.196;4.542;2023-04-25T06:41:17;11.80;;;3.60;;
80152;SDS011;69475;51.196;4.542;2023-04-25T06:43:44;13.23;;;3.65;;
80152;SDS011;69475;51.196;4.542;2023-04-25T06:46:09;11.45;;;4.30;;
80152;SDS011;69475;51.196;4.542;2023-04-25T06:48:36;11.10;;;3.90;;
80152;SDS011;69475;51.196;4.542;2023-04-25T06:51:01;9.65;;;4.10;;
80152;SDS011;69475;51.196;4.542;2023-04-25T06:53:27;10.77;;;3.70;;
80152;SDS011;69475;51.196;4.542;2023-04-25T06:55:53;10.05;;;3.58;;
80152;SDS011;69475;51.196;4.542;2023-04-25T06:58:19;10.32;;;4.05;;
80152;SDS011;69475;51.196;4.542;2023-04-25T07:00:45;7.68;;;3.42;;
80152;SDS011;69475;51.196;4.542;2023-04-25T07:03:11;6.55;;;3.10;;
80152;SDS011;69475;51.196;4.542;2023-04-25T07:05:37;8.50;;;3.40;;
80152;SDS011;69475;51.196;4.542;2023-04-25T07:08:02;7.95;;;3.40;;
80152;SDS011;69475;51.196;4.542;2023-04-25T07:10:28;9.98;;;3.50;;
80152;SDS011;69475;51.196;4.542;2023-04-25T07:12:54;8.18;;;3.17;;
80152;SDS011;69475;51.196;4.542;2023-04-25T07:15:20;7.78;;;3.38;;
80152;SDS011;69475;51.196;4.542;2023-04-25T07:17:46;8.45;;;3.40;;
80152;SDS011;69475;51.196;4.542;2023-04-25T07:20:11;9.50;;;3.40;;
80152;SDS011;69475;51.196;4.542;2023-04-25T07:22:37;6.07;;;3.25;;
80152;SDS011;69475;51.196;4.542;2023-04-25T07:25:03;10.35;;;3.88;;
80152;SDS011;69475;51.196;4.542;2023-04-25T07:27:30;10.85;;;3.17;;
80152;SDS011;69475;51.196;4.542;2023-04-25T07:29:56;7.78;;;3.40;;
80152;SDS011;69475;51.196;4.542;2023-04-25T07:32:22;7.25;;;3.22;;
80152;SDS011;69475;51.196;4.542;2023-04-25T07:34:48;7.15;;;3.47;;
80152;SDS011;69475;51.196;4.542;2023-04-25T07:37:14;7.35;;;3.17;;
80152;SDS011;69475;51.196;4.542;2023-04-25T07:39:40;8.80;;;3.20;;
80152;SDS011;69475;51.196;4.542;2023-04-25T07:42:06;10.63;;;3.60;;
80152;SDS011;69475;51.196;4.542;2023-04-25T07:44:33;8.38;;;3.58;;
80152;SDS011;69475;51.196;4.542;2023-04-25T07:47:06;6.30;;;3.10;;
80152;SDS011;69475;51.196;4.542;2023-04-25T07:49:32;7.60;;;3.45;;
80152;SDS011;69475;51.196;4.542;2023-04-25T07:51:59;7.55;;;3.35;;
80152;SDS011;69475;51.196;4.542;2023-04-25T07:54:25;8.35;;;3.40;;
80152;SDS011;69475;51.196;4.542;2023-04-25T07:56:51;6.40;;;3.30;;
80152;SDS011;69475;51.196;4.542;2023-04-25T07:59:17;6.80;;;3.40;;
80152;SDS011;69475;51.196;4.542;2023-04-25T08:01:42;6.43;;;3.60;;
80152;SDS011;69475;51.196;4.542;2023-04-25T08:04:08;7.20;;;3.40;;
80152;SDS011;69475;51.196;4.542;2023-04-25T08:06:34;6.72;;;3.22;;
80152;SDS011;69475;51.196;4.542;2023-04-25T08:08:59;7.07;;;3.08;;
80152;SDS011;69475;51.196;4.542;2023-04-25T08:11:25;7.63;;;3.13;;
80152;SDS011;69475;51.196;4.542;2023-04-25T08:13:51;6.80;;;3.17;;
80152;SDS011;69475;51.196;4.542;2023-04-25T08:16:16;8.63;;;3.22;;
80152;SDS011;69475;51.196;4.542;2023-04-25T08:18:42;8.93;;;3.53;;
80152;SDS011;69475;51.196;4.542;2023-04-25T08:21:08;7.90;;;3.20;;
80152;SDS011;69475;51.196;4.542;2023-04-25T08:23:36;6.35;;;3.17;;
80152;SDS011;69475;51.196;4.542;2023-04-25T08:26:02;5.07;;;3.13;;
80152;SDS011;69475;51.196;4.542;2023-04-25T08:28:28;6.65;;;3.05;;
80152;SDS011;69475;51.196;4.542;2023-04-25T08:30:54;5.95;;;2.78;;
80152;SDS011;69475;51.196;4.542;2023-04-25T08:33:19;7.38;;;3.20;;
80152;SDS011;69475;51.196;4.542;2023-04-25T08:35:45;9.18;;;3.45;;
80152;SDS011;69475;51.196;4.542;2023-04-25T08:38:11;7.85;;;3.28;;
80152;SDS011;69475;51.196;4.542;2023-04-25T08:40:37;4.75;;;2.53;;
80152;SDS011;69475;51.196;4.542;2023-04-25T08:43:04;7.40;;;3.13;;
80152;SDS011;69475;51.196;4.542;2023-04-25T08:45:36;6.97;;;3.10;;
80152;SDS011;69475;51.196;4.542;2023-04-25T08:48:10;5.43;;;3.00;;
80152;SDS011;69475;51.196;4.542;2023-04-25T08:50:40;4.85;;;3.08;;
80152;SDS011;69475;51.196;4.542;2023-04-25T08:53:14;4.30;;;2.80;;
80152;SDS011;69475;51.196;4.542;2023-04-25T08:55:43;6.15;;;3.00;;
80152;SDS011;69475;51.196;4.542;2023-04-25T08:58:11;4.78;;;2.78;;
80152;SDS011;69475;51.196;4.542;2023-04-25T09:00:38;5.50;;;2.60;;
80152;SDS011;69475;51.196;4.542;2023-04-25T09:03:04;6.97;;;3.00;;
80152;SDS011;69475;51.196;4.542;2023-04-25T09:05:30;6.38;;;3.10;;
80152;SDS011;69475;51.196;4.542;2023-04-25T09:08:00;6.13;;;2.70;;
80152;SDS011;69475;51.196;4.542;2023-04-25T09:10:26;4.90;;;2.78;;
80152;SDS011;69475;51.196;4.542;2023-04-25T09:15:48;6.93;;;2.95;;
80152;SDS011;69475;51.196;4.542;2023-04-25T09:18:27;6.20;;;2.90;;
80152;SDS011;69475;51.196;4.542;2023-04-25T09:21:10;4.60;;;2.85;;
80152;SDS011;69475;51.196;4.542;2023-04-25T09:23:41;6.72;;;2.60;;
80152;SDS011;69475;51.196;4.542;2023-04-25T09:26:13;6.38;;;2.60;;
80152;SDS011;69475;51.196;4.542;2023-04-25T09:28:42;6.10;;;3.00;;
80152;SDS011;69475;51.196;4.542;2023-04-25T09:31:09;5.88;;;2.70;;
80152;SDS011;69475;51.196;4.542;2023-04-25T09:33:36;4.53;;;2.67;;
80152;SDS011;69475;51.196;4.542;2023-04-25T09:36:06;7.65;;;2.80;;
80152;SDS011;69475;51.196;4.542;2023-04-25T09:38:46;5.18;;;2.60;;
80152;SDS011;69475;51.196;4.542;2023-04-25T09:41:11;4.22;;;2.30;;
80152;SDS011;69475;51.196;4.542;2023-04-25T09:43:38;6.25;;;2.72;;
80152;SDS011;69475;51.196;4.542;2023-04-25T09:46:08;3.88;;;2.75;;
80152;SDS011;69475;51.196;4.542;2023-04-25T09:48:36;4.25;;;2.60;;
80152;SDS011;69475;51.196;4.542;2023-04-25T09:51:12;5.32;;;2.70;;
80152;SDS011;69475;51.196;4.542;2023-04-25T09:53:40;4.90;;;2.42;;
80152;SDS011;69475;51.196;4.542;2023-04-25T09:56:07;5.15;;;2.70;;
80152;SDS011;69475;51.196;4.542;2023-04-25T09:58:35;5.07;;;2.47;;
80152;SDS011;69475;51.196;4.542;2023-04-25T10:01:03;5.45;;;2.83;;
80152;SDS011;69475;51.196;4.542;2023-04-25T10:03:31;3.35;;;2.30;;
80152;SDS011;69475;51.196;4.542;2023-04-25T10:05:59;4.43;;;2.53;;
80152;SDS011;69475;51.196;4.542;2023-04-25T10:08:30;5.28;;;2.38;;
80152;SDS011;69475;51.196;4.542;2023-04-25T10:11:02;4.53;;;2.35;;
80152;SDS011;69475;51.196;4.542;2023-04-25T10:13:33;4.28;;;2.40;;
80152;SDS011;69475;51.196;4.542;2023-04-25T10:16:03;3.20;;;2.25;;
80152;SDS011;69475;51.196;4.542;2023-04-25T10:18:30;5.40;;;2.30;;
80152;SDS011;69475;51.196;4.542;2023-04-25T10:21:01;4.68;;;2.40;;
80152;SDS011;69475;51.196;4.542;2023-04-25T10:23:29;5.32;;;2.28;;
80152;SDS011;69475;51.196;4.542;2023-04-25T10:25:56;6.47;;;2.70;;
80152;SDS011;69475;51.196;4.542;2023-04-25T10:28:23;6.97;;;2.35;;
80152;SDS011;69475;51.196;4.542;2023-04-25T10:30:59;5.15;;;2.67;;
80152;SDS011;69475;51.196;4.542;2023-04-25T10:36:11;5.63;;;2.97;;
80152;SDS011;69475;51.196;4.542;2023-04-25T10:38:38;4.35;;;2.50;;
80152;SDS011;69475;51.196;4.542;2023-04-25T10:41:06;4.30;;;2.20;;
80152;SDS011;69475;51.196;4.542;2023-04-25T10:43:43;4.97;;;2.33;;
80152;SDS011;69475;51.196;4.542;2023-04-25T10:48:51;5.03;;;2.50;;
80152;SDS011;69475;51.196;4.542;2023-04-25T10:56:20;4.93;;;2.55;;
80152;SDS011;69475;51.196;4.542;2023-04-25T10:59:16;5.65;;;2.30;;
80152;SDS011;69475;51.196;4.542;2023-04-25T11:01:43;3.53;;;2.25;;
80152;SDS011;69475;51.196;4.542;2023-04-25T11:04:21;5.25;;;2.40;;
80152;SDS011;69475;51.196;4.542;2023-04-25T11:09:20;4.90;;;2.58;;
80152;SDS011;69475;51.196;4.542;2023-04-25T11:11:53;3.58;;;2.13;;
80152;SDS011;69475;51.196;4.542;2023-04-25T11:14:23;5.28;;;2.22;;
80152;SDS011;69475;51.196;4.542;2023-04-25T11:16:55;4.90;;;2.50;;
80152;SDS011;69475;51.196;4.542;2023-04-25T11:19:23;4.03;;;2.20;;
80152;SDS011;69475;51.196;4.542;2023-04-25T11:21:50;4.93;;;2.38;;
80152;SDS011;69475;51.196;4.542;2023-04-25T11:24:19;5.75;;;2.47;;
80152;SDS011;69475;51.196;4.542;2023-04-25T11:26:50;4.85;;;2.30;;
80152;SDS011;69475;51.196;4.542;2023-04-25T11:29:15;4.40;;;2.47;;
80152;SDS011;69475;51.196;4.542;2023-04-25T11:31:44;4.32;;;2.42;;
80152;SDS011;69475;51.196;4.542;2023-04-25T11:34:10;4.60;;;2.28;;
80152;SDS011;69475;51.196;4.542;2023-04-25T11:36:37;3.28;;;2.05;;
80152;SDS011;69475;51.196;4.542;2023-04-25T11:39:03;5.55;;;2.50;;
80152;SDS011;69475;51.196;4.542;2023-04-25T11:41:31;4.00;;;2.40;;
80152;SDS011;69475;51.196;4.542;2023-04-25T11:43:56;4.55;;;2.30;;
80152;SDS011;69475;51.196;4.542;2023-04-25T11:46:22;4.25;;;2.40;;
80152;SDS011;69475;51.196;4.542;2023-04-25T11:48:48;3.90;;;2.30;;
80152;SDS011;69475;51.196;4.542;2023-04-25T11:51:15;5.25;;;2.30;;
80152;SDS011;69475;51.196;4.542;2023-04-25T11:53:41;5.03;;;2.33;;
80152;SDS011;69475;51.196;4.542;2023-04-25T11:56:09;4.40;;;2.05;;
80152;SDS011;69475;51.196;4.542;2023-04-25T11:58:58;2.88;;;2.10;;
80152;SDS011;69475;51.196;4.542;2023-04-25T12:01:31;3.97;;;2.10;;
80152;SDS011;69475;51.196;4.542;2023-04-25T12:03:58;4.97;;;2.47;;
80152;SDS011;69475;51.196;4.542;2023-04-25T12:06:38;4.15;;;2.10;;
80152;SDS011;69475;51.196;4.542;2023-04-25T12:09:08;4.95;;;2.03;;
80152;SDS011;69475;51.196;4.542;2023-04-25T12:11:46;4.55;;;2.20;;
80152;SDS011;69475;51.196;4.542;2023-04-25T12:16:58;3.53;;;2.17;;
80152;SDS011;69475;51.196;4.542;2023-04-25T12:19:25;4.13;;;2.00;;
80152;SDS011;69475;51.196;4.542;2023-04-25T12:21:56;3.90;;;2.10;;
80152;SDS011;69475;51.196;4.542;2023-04-25T12:24:22;3.35;;;2.08;;
80152;SDS011;69475;51.196;4.542;2023-04-25T12:27:02;3.30;;;2.28;;
80152;SDS011;69475;51.196;4.542;2023-04-25T12:29:30;4.28;;;2.28;;
80152;SDS011;69475;51.196;4.542;2023-04-25T12:31:57;4.25;;;2.20;;
80152;SDS011;69475;51.196;4.542;2023-04-25T12:34:23;3.17;;;2.00;;
80152;SDS011;69475;51.196;4.542;2023-04-25T12:36:50;3.83;;;2.00;;
80152;SDS011;69475;51.196;4.542;2023-04-25T12:39:20;2.78;;;2.08;;
80152;SDS011;69475;51.196;4.542;2023-04-25T12:41:51;3.15;;;2.08;;
80152;SDS011;69475;51.196;4.542;2023-04-25T12:44:19;3.30;;;2.27;;
80152;SDS011;69475;51.196;4.542;2023-04-25T12:46:45;4.13;;;2.00;;
80152;SDS011;69475;51.196;4.542;2023-04-25T12:49:11;4.28;;;2.08;;
80152;SDS011;69475;51.196;4.542;2023-04-25T12:51:37;3.20;;;1.77;;
80152;SDS011;69475;51.196;4.542;2023-04-25T12:54:03;4.00;;;2.00;;
80152;SDS011;69475;51.196;4.542;2023-04-25T12:56:31;3.65;;;2.10;;
80152;SDS011;69475;51.196;4.542;2023-04-25T12:58:57;4.15;;;1.90;;
80152;SDS011;69475;51.196;4.542;2023-04-25T13:01:23;3.38;;;1.80;;
80152;SDS011;69475;51.196;4.542;2023-04-25T13:03:49;3.05;;;1.98;;
80152;SDS011;69475;51.196;4.542;2023-04-25T13:06:16;2.30;;;2.00;;
80152;SDS011;69475;51.196;4.542;2023-04-25T13:08:42;3.35;;;1.98;;
80152;SDS011;69475;51.196;4.542;2023-04-25T13:11:08;4.75;;;2.10;;
80152;SDS011;69475;51.196;4.542;2023-04-25T13:13:34;3.40;;;1.98;;
80152;SDS011;69475;51.196;4.542;2023-04-25T13:16:00;2.88;;;2.03;;
80152;SDS011;69475;51.196;4.542;2023-04-25T13:18:30;4.95;;;2.20;;
80152;SDS011;69475;51.196;4.542;2023-04-25T13:20:56;5.25;;;2.10;;
80152;SDS011;69475;51.196;4.542;2023-04-25T13:23:24;3.78;;;2.00;;
80152;SDS011;69475;51.196;4.542;2023-04-25T13:25:51;4.00;;;1.95;;
80152;SDS011;69475;51.196;4.542;2023-04-25T13:28:17;3.95;;;2.10;;
80152;SDS011;69475;51.196;4.542;2023-04-25T13:30:42;5.43;;;2.35;;
80152;SDS011;69475;51.196;4.542;2023-04-25T13:33:08;3.25;;;2.10;;
80152;SDS011;69475;51.196;4.542;2023-04-25T13:35:35;3.65;;;1.98;;
80152;SDS011;69475;51.196;4.542;2023-04-25T13:38:02;4.28;;;1.90;;
80152;SDS011;69475;51.196;4.542;2023-04-25T13:40:28;3.75;;;2.00;;
80152;SDS011;69475;51.196;4.542;2023-04-25T13:42:54;3.65;;;2.03;;
80152;SDS011;69475;51.196;4.542;2023-04-25T13:45:21;3.42;;;1.90;;
80152;SDS011;69475;51.196;4.542;2023-04-25T13:47:46;2.92;;;1.90;;
80152;SDS011;69475;51.196;4.542;2023-04-25T13:50:12;2.78;;;1.90;;
80152;SDS011;69475;51.196;4.542;2023-04-25T13:52:39;2.95;;;1.90;;
80152;SDS011;69475;51.196;4.542;2023-04-25T13:55:05;3.45;;;1.90;;
80152;SDS011;69475;51.196;4.542;2023-04-25T13:57:32;4.75;;;2.25;;
80152;SDS011;69475;51.196;4.542;2023-04-25T13:59:58;6.22;;;2.13;;
80152;SDS011;69475;51.196;4.542;2023-04-25T14:02:29;2.80;;;1.90;;
80152;SDS011;69475;51.196;4.542;2023-04-25T14:04:55;5.63;;;2.20;;
80152;SDS011;69475;51.196;4.542;2023-04-25T14:07:21;4.47;;;2.30;;
80152;SDS011;69475;51.196;4.542;2023-04-25T14:09:47;4.20;;;2.00;;
80152;SDS011;69475;51.196;4.542;2023-04-25T14:12:12;4.30;;;2.03;;
80152;SDS011;69475;51.196;4.542;2023-04-25T14:14:38;4.32;;;2.17;;
80152;SDS011;69475;51.196;4.542;2023-04-25T14:17:04;3.63;;;2.10;;
80152;SDS011;69475;51.196;4.542;2023-04-25T14:19:30;6.55;;;2.33;;
80152;SDS011;69475;51.196;4.542;2023-04-25T14:21:55;5.65;;;2.10;;
80152;SDS011;69475;51.196;4.542;2023-04-25T14:24:21;3.95;;;2.00;;
80152;SDS011;69475;51.196;4.542;2023-04-25T14:26:47;3.55;;;1.90;;
80152;SDS011;69475;51.196;4.542;2023-04-25T14:29:12;3.90;;;2.00;;
80152;SDS011;69475;51.196;4.542;2023-04-25T14:31:39;4.18;;;1.85;;
80152;SDS011;69475;51.196;4.542;2023-04-25T14:34:05;5.60;;;2.10;;
80152;SDS011;69475;51.196;4.542;2023-04-25T14:36:31;4.90;;;2.03;;
80152;SDS011;69475;51.196;4.542;2023-04-25T14:38:58;3.42;;;1.83;;
80152;SDS011;69475;51.196;4.542;2023-04-25T14:41:24;5.57;;;2.25;;
80152;SDS011;69475;51.196;4.542;2023-04-25T14:43:51;3.95;;;1.88;;
80152;SDS011;69475;51.196;4.542;2023-04-25T14:46:22;4.03;;;2.00;;
80152;SDS011;69475;51.196;4.542;2023-04-25T14:48:48;4.53;;;2.10;;
80152;SDS011;69475;51.196;4.542;2023-04-25T14:51:14;5.10;;;2.17;;
80152;SDS011;69475;51.196;4.542;2023-04-25T14:53:41;3.72;;;2.08;;
80152;SDS011;69475;51.196;4.542;2023-04-25T14:56:06;3.13;;;2.15;;
80152;SDS011;69475;51.196;4.542;2023-04-25T14:58:33;4.55;;;2.17;;
80152;SDS011;69475;51.196;4.542;2023-04-25T15:00:59;5.13;;;2.22;;
80152;SDS011;69475;51.196;4.542;2023-04-25T15:03:25;4.80;;;2.00;;